Time;durP1;ratioP1;P1;durP2;ratioP2;P2;SDS_P1;SDS_P2;PMS_P1;PMS_P2;Temp;Humidity;BMP_temperature;BMP_pressure;BME280_temperature;BME280_humidity;BME280_pressure;Samples;Min_cycle;Max_cycle;Signal;HPM_P1;HPM_P2
2022/09/11 00:01:13;;;;;;;0.83;0.83;;;;;;;;;;5023941;28;20235;-73
2022/09/11 00:03:38;;;;;;;0.90;0.90;;;;;;;;;;5034160;28;20239;-73
2022/09/11 00:06:05;;;;;;;0.70;0.70;;;;;;;;;;5015567;28;20223;-73
2022/09/11 00:08:32;;;;;;;0.80;0.80;;;;;;;;;;5014352;28;20713;-72
2022/09/11 00:11:04;;;;;;;0.80;0.80;;;;;;;;;;5003537;28;20306;-72
2022/09/11 00:13:30;;;;;;;0.90;0.90;;;;;;;;;;5035916;28;20238;-72
2022/09/11 00:15:56;;;;;;;0.80;0.80;;;;;;;;;;5040424;28;20254;-74
2022/09/11 00:18:22;;;;;;;0.70;0.70;;;;;;;;;;5001226;28;26080;-73
2022/09/11 00:20:49;;;;;;;0.60;0.60;;;;;;;;;;5032974;28;20235;-74
2022/09/11 00:23:16;;;;;;;0.80;0.80;;;;;;;;;;5035781;28;20691;-73
2022/09/11 00:25:43;;;;;;;0.70;0.70;;;;;;;;;;5038497;28;20275;-74
2022/09/11 00:28:19;;;;;;;0.77;0.77;;;;;;;;;;5035893;28;21036;-73
2022/09/11 00:30:45;;;;;;;0.80;0.80;;;;;;;;;;5034793;28;20225;-73
2022/09/11 00:33:11;;;;;;;0.80;0.80;;;;;;;;;;5006187;28;20228;-72
2022/09/11 00:35:38;;;;;;;0.80;0.80;;;;;;;;;;5004165;28;20230;-74
2022/09/11 00:38:04;;;;;;;0.77;0.77;;;;;;;;;;5042539;28;20224;-72
2022/09/11 00:40:30;;;;;;;0.83;0.83;;;;;;;;;;5016388;28;20258;-75
2022/09/11 00:42:56;;;;;;;0.70;0.70;;;;;;;;;;5014819;28;20228;-72
2022/09/11 00:45:24;;;;;;;0.70;0.70;;;;;;;;;;5036802;28;20219;-73
2022/09/11 00:47:50;;;;;;;0.80;0.80;;;;;;;;;;5023996;28;20258;-74
2022/09/11 00:50:16;;;;;;;1.03;1.03;;;;;;;;;;5019149;28;20219;-73
2022/09/11 00:52:48;;;;;;;0.70;0.70;;;;;;;;;;5035255;28;20228;-73
2022/09/11 00:55:14;;;;;;;0.90;0.90;;;;;;;;;;5039659;28;20741;-74
2022/09/11 00:57:55;;;;;;;0.90;0.90;;;;;;;;;;5020054;28;20232;-73
2022/09/11 01:00:21;;;;;;;0.80;0.80;;;;;;;;;;5034474;28;20218;-73
2022/09/11 01:02:48;;;;;;;0.90;0.90;;;;;;;;;;5041370;28;20239;-73
2022/09/11 01:05:15;;;;;;;0.90;0.90;;;;;;;;;;5022249;28;20238;-73
2022/09/11 01:07:41;;;;;;;0.90;0.90;;;;;;;;;;5019587;28;20212;-73
2022/09/11 01:10:07;;;;;;;0.70;0.70;;;;;;;;;;5031485;28;20711;-74
2022/09/11 01:12:35;;;;;;;0.90;0.90;;;;;;;;;;5024581;28;21181;-73
2022/09/11 01:15:02;;;;;;;0.90;0.90;;;;;;;;;;5019753;28;20670;-73
2022/09/11 01:17:34;;;;;;;0.77;0.77;;;;;;;;;;5035277;28;20219;-74
2022/09/11 01:20:08;;;;;;;0.70;0.70;;;;;;;;;;5023981;28;20212;-74
2022/09/11 01:22:46;;;;;;;1.63;1.63;;;;;;;;;;5016925;28;20234;-75
2022/09/11 01:25:19;;;;;;;1.20;1.20;;;;;;;;;;5038746;28;20258;-74
2022/09/11 01:27:55;;;;;;;1.40;1.40;;;;;;;;;;5036092;28;20701;-73
2022/09/11 01:30:22;;;;;;;1.50;1.50;;;;;;;;;;5000209;28;20845;-73
2022/09/11 01:32:51;;;;;;;1.47;1.47;;;;;;;;;;5010996;28;20222;-74
2022/09/11 01:35:20;;;;;;;1.67;1.67;;;;;;;;;;5028474;28;20222;-73
2022/09/11 01:38:07;;;;;;;1.40;1.40;;;;;;;;;;5018660;28;20248;-73
2022/09/11 01:40:36;;;;;;;1.60;1.60;;;;;;;;;;5030702;28;20247;-73
2022/09/11 01:43:04;;;;;;;1.40;1.40;;;;;;;;;;5021760;28;20355;-73
2022/09/11 01:45:30;;;;;;;1.40;1.40;;;;;;;;;;5021079;28;20313;-73
2022/09/11 01:47:57;;;;;;;1.60;1.60;;;;;;;;;;5040247;28;20672;-73
2022/09/11 01:50:23;;;;;;;1.63;1.63;;;;;;;;;;5044259;28;20316;-73
2022/09/11 01:52:57;;;;;;;1.67;1.67;;;;;;;;;;5025061;28;20220;-73
2022/09/11 01:55:30;;;;;;;1.30;1.30;;;;;;;;;;5026053;28;20227;-73
2022/09/11 01:58:05;;;;;;;1.30;1.30;;;;;;;;;;5024616;28;20235;-72
2022/09/11 02:00:32;;;;;;;1.40;1.40;;;;;;;;;;5020934;28;20594;-72
2022/09/11 02:02:59;;;;;;;1.40;1.40;;;;;;;;;;5033474;28;20229;-75
2022/09/11 02:05:32;;;;;;;1.40;1.40;;;;;;;;;;5028719;28;20227;-74
2022/09/11 02:08:00;;;;;;;1.43;1.43;;;;;;;;;;5026607;28;20223;-74
2022/09/11 02:10:29;;;;;;;1.40;1.40;;;;;;;;;;5023546;28;20245;-74
2022/09/11 02:13:15;;;;;;;1.43;1.43;;;;;;;;;;5036389;28;20220;-73
2022/09/11 02:15:42;;;;;;;1.50;1.50;;;;;;;;;;5011202;28;20282;-75
2022/09/11 02:18:11;;;;;;;1.40;1.40;;;;;;;;;;5034828;28;20731;-74
2022/09/11 02:20:37;;;;;;;1.20;1.20;;;;;;;;;;5024080;28;20234;-72
2022/09/11 02:23:03;;;;;;;1.33;1.33;;;;;;;;;;5029025;28;20220;-75
2022/09/11 02:25:29;;;;;;;1.30;1.30;;;;;;;;;;5026254;28;20308;-74
2022/09/11 02:27:55;;;;;;;1.23;1.23;;;;;;;;;;5032851;28;20569;-72
2022/09/11 02:30:21;;;;;;;1.30;1.30;;;;;;;;;;5025233;28;20658;-73
2022/09/11 02:32:47;;;;;;;1.30;1.30;;;;;;;;;;5036906;28;20224;-74
2022/09/11 02:35:15;;;;;;;1.13;1.13;;;;;;;;;;5047682;28;20224;-73
2022/09/11 02:37:44;;;;;;;1.20;1.20;;;;;;;;;;5034646;28;21888;-73
2022/09/11 02:40:18;;;;;;;1.30;1.30;;;;;;;;;;5040698;28;20281;-72
2022/09/11 02:43:03;;;;;;;1.53;1.53;;;;;;;;;;5009174;28;20749;-72
2022/09/11 02:45:34;;;;;;;1.20;1.20;;;;;;;;;;5022958;28;26126;-73
2022/09/11 02:48:19;;;;;;;1.30;1.30;;;;;;;;;;5021384;28;20218;-73
2022/09/11 02:50:48;;;;;;;1.20;1.20;;;;;;;;;;5031601;28;20225;-73
2022/09/11 02:53:14;;;;;;;1.10;1.10;;;;;;;;;;5043359;28;20232;-73
2022/09/11 02:55:47;;;;;;;1.50;1.50;;;;;;;;;;5025095;28;20258;-73
2022/09/11 02:58:14;;;;;;;1.30;1.30;;;;;;;;;;5042252;28;20228;-74
2022/09/11 03:00:40;;;;;;;1.30;1.30;;;;;;;;;;5036932;28;20265;-74
2022/09/11 03:03:06;;;;;;;1.30;1.30;;;;;;;;;;5011739;28;20327;-74
2022/09/11 03:05:32;;;;;;;1.50;1.50;;;;;;;;;;5039292;28;20224;-73
2022/09/11 03:07:58;;;;;;;1.30;1.30;;;;;;;;;;5042525;28;20337;-73
2022/09/11 03:10:26;;;;;;;1.30;1.30;;;;;;;;;;5038354;28;20222;-74
2022/09/11 03:12:53;;;;;;;1.20;1.20;;;;;;;;;;5031270;28;20369;-73
2022/09/11 03:15:19;;;;;;;1.10;1.10;;;;;;;;;;5028295;28;20697;-73
2022/09/11 03:17:45;;;;;;;1.53;1.53;;;;;;;;;;5023276;28;20209;-73
2022/09/11 03:20:11;;;;;;;1.47;1.47;;;;;;;;;;5025792;28;21316;-73
2022/09/11 03:22:38;;;;;;;1.30;1.30;;;;;;;;;;5047315;28;20258;-73
2022/09/11 03:25:05;;;;;;;1.30;1.30;;;;;;;;;;5029175;28;20303;-74
2022/09/11 03:27:31;;;;;;;1.27;1.27;;;;;;;;;;5036984;28;20327;-73
2022/09/11 03:29:57;;;;;;;1.30;1.30;;;;;;;;;;5026076;28;20259;-75
2022/09/11 03:32:23;;;;;;;1.30;1.30;;;;;;;;;;5026343;28;20303;-73
2022/09/11 03:34:49;;;;;;;1.60;1.60;;;;;;;;;;5025171;28;20315;-74
2022/09/11 03:37:15;;;;;;;1.50;1.50;;;;;;;;;;5041498;28;20639;-73
2022/09/11 03:39:42;;;;;;;1.67;1.67;;;;;;;;;;5027453;28;20207;-72
2022/09/11 03:42:11;;;;;;;1.30;1.30;;;;;;;;;;5034101;28;20231;-73
2022/09/11 03:44:36;;;;;;;1.40;1.40;;;;;;;;;;5039182;28;20311;-73
2022/09/11 03:47:02;;;;;;;1.40;1.40;;;;;;;;;;5032811;28;20228;-75
2022/09/11 03:49:28;;;;;;;1.30;1.30;;;;;;;;;;5036667;28;20377;-73
2022/09/11 03:51:55;;;;;;;1.20;1.20;;;;;;;;;;5029508;28;20229;-74
2022/09/11 03:54:21;;;;;;;1.30;1.30;;;;;;;;;;5031111;28;20224;-74
2022/09/11 03:56:47;;;;;;;1.40;1.40;;;;;;;;;;5028353;28;20594;-72
2022/09/11 03:59:13;;;;;;;1.50;1.50;;;;;;;;;;5021840;28;20302;-73
2022/09/11 04:01:39;;;;;;;1.50;1.50;;;;;;;;;;5024277;28;20238;-74
2022/09/11 04:04:05;;;;;;;1.40;1.40;;;;;;;;;;5028301;28;20262;-73
2022/09/11 04:06:34;;;;;;;1.53;1.53;;;;;;;;;;5019559;28;20256;-73
2022/09/11 04:09:01;;;;;;;1.47;1.47;;;;;;;;;;5026454;28;20239;-73
2022/09/11 04:11:27;;;;;;;1.27;1.27;;;;;;;;;;5019357;28;22097;-75
2022/09/11 04:13:53;;;;;;;1.20;1.20;;;;;;;;;;5012363;28;20234;-72
2022/09/11 04:16:19;;;;;;;1.40;1.40;;;;;;;;;;5013602;28;20278;-74
2022/09/11 04:18:45;;;;;;;1.30;1.30;;;;;;;;;;5033495;28;20698;-75
2022/09/11 04:21:12;;;;;;;1.30;1.30;;;;;;;;;;5016132;28;20234;-72
2022/09/11 04:23:38;;;;;;;1.20;1.20;;;;;;;;;;5029995;28;20291;-74
2022/09/11 04:26:14;;;;;;;1.20;1.20;;;;;;;;;;4993955;28;20228;-74
2022/09/11 04:28:40;;;;;;;1.30;1.30;;;;;;;;;;5017903;28;20266;-73
2022/09/11 04:31:06;;;;;;;1.20;1.20;;;;;;;;;;5012407;28;20223;-74
2022/09/11 04:33:32;;;;;;;1.10;1.10;;;;;;;;;;5019837;28;20238;-74
2022/09/11 04:35:58;;;;;;;1.30;1.30;;;;;;;;;;5021264;28;20231;-74
2022/09/11 04:38:24;;;;;;;1.30;1.30;;;;;;;;;;5023937;28;20224;-72
2022/09/11 04:40:50;;;;;;;1.30;1.30;;;;;;;;;;5004483;28;20271;-73
2022/09/11 04:43:16;;;;;;;1.40;1.40;;;;;;;;;;5035565;28;20215;-75
2022/09/11 04:45:42;;;;;;;1.30;1.30;;;;;;;;;;5010391;28;20228;-72
2022/09/11 04:48:08;;;;;;;1.20;1.20;;;;;;;;;;5031824;28;20222;-75
2022/09/11 04:50:34;;;;;;;1.20;1.20;;;;;;;;;;5030260;28;20476;-73
2022/09/11 04:53:00;;;;;;;1.20;1.20;;;;;;;;;;5022113;28;20234;-75
2022/09/11 04:55:26;;;;;;;1.40;1.40;;;;;;;;;;5019465;28;20711;-75
2022/09/11 04:57:52;;;;;;;1.20;1.20;;;;;;;;;;5031040;28;21274;-74
2022/09/11 05:00:18;;;;;;;1.30;1.30;;;;;;;;;;5019931;28;20246;-73
2022/09/11 05:02:46;;;;;;;1.60;1.60;;;;;;;;;;5012903;28;20700;-73
2022/09/11 05:05:12;;;;;;;1.13;1.13;;;;;;;;;;5024407;28;20719;-73
2022/09/11 05:07:38;;;;;;;1.20;1.20;;;;;;;;;;5024611;28;20220;-74
2022/09/11 05:10:04;;;;;;;1.53;1.53;;;;;;;;;;5030591;28;20223;-74
2022/09/11 05:12:30;;;;;;;1.60;1.60;;;;;;;;;;4990923;28;20223;-73
2022/09/11 05:14:56;;;;;;;1.40;1.40;;;;;;;;;;4994736;28;20300;-73
2022/09/11 05:17:22;;;;;;;1.20;1.20;;;;;;;;;;5018280;28;20352;-72
2022/09/11 05:19:48;;;;;;;1.33;1.33;;;;;;;;;;5030266;28;20215;-73
2022/09/11 05:22:14;;;;;;;1.13;1.13;;;;;;;;;;5033785;28;20232;-74
2022/09/11 05:24:40;;;;;;;1.40;1.40;;;;;;;;;;5028933;28;20217;-73
2022/09/11 05:27:07;;;;;;;1.20;1.20;;;;;;;;;;5039322;28;20221;-72
2022/09/11 05:29:32;;;;;;;1.10;1.10;;;;;;;;;;5035898;28;20314;-73
2022/09/11 05:31:58;;;;;;;1.20;1.20;;;;;;;;;;5021594;28;20229;-75
2022/09/11 05:34:27;;;;;;;1.27;1.27;;;;;;;;;;5026815;28;20264;-73
2022/09/11 05:36:54;;;;;;;1.30;1.30;;;;;;;;;;5035181;28;20255;-73
2022/09/11 05:39:20;;;;;;;1.10;1.10;;;;;;;;;;5005423;28;20223;-75
2022/09/11 05:41:49;;;;;;;1.00;1.00;;;;;;;;;;5031027;28;20627;-75
2022/09/11 05:44:16;;;;;;;1.30;1.30;;;;;;;;;;5036299;28;20637;-73
2022/09/11 05:46:42;;;;;;;1.20;1.20;;;;;;;;;;5036787;28;20227;-73
2022/09/11 05:49:08;;;;;;;1.00;1.00;;;;;;;;;;5024891;28;20211;-74
2022/09/11 05:51:36;;;;;;;1.20;1.20;;;;;;;;;;5034348;28;20286;-75
2022/09/11 05:54:02;;;;;;;1.10;1.10;;;;;;;;;;5031944;28;20258;-75
2022/09/11 05:56:28;;;;;;;1.00;1.00;;;;;;;;;;5005710;28;20246;-72
2022/09/11 05:58:54;;;;;;;1.20;1.20;;;;;;;;;;5026358;28;20672;-75
2022/09/11 06:01:20;;;;;;;1.20;1.20;;;;;;;;;;5014277;28;20278;-73
2022/09/11 06:03:48;;;;;;;1.13;1.13;;;;;;;;;;5023622;28;20712;-72
2022/09/11 06:06:14;;;;;;;1.10;1.10;;;;;;;;;;5026806;28;20270;-74
2022/09/11 06:08:42;;;;;;;1.00;1.00;;;;;;;;;;5015046;28;20212;-74
2022/09/11 06:11:09;;;;;;;1.20;1.20;;;;;;;;;;5016855;28;20219;-75
2022/09/11 06:13:37;;;;;;;1.10;1.10;;;;;;;;;;5015211;28;20232;-74
2022/09/11 06:16:03;;;;;;;1.20;1.20;;;;;;;;;;5018205;28;20223;-74
2022/09/11 06:18:29;;;;;;;1.10;1.10;;;;;;;;;;5036246;28;20228;-73
2022/09/11 06:20:56;;;;;;;1.10;1.10;;;;;;;;;;5026150;28;20692;-73
2022/09/11 06:23:22;;;;;;;1.20;1.20;;;;;;;;;;5013881;28;20225;-74
2022/09/11 06:25:48;;;;;;;1.00;1.00;;;;;;;;;;5011023;28;20216;-73
2022/09/11 06:28:14;;;;;;;1.13;1.13;;;;;;;;;;5022088;28;20227;-74
2022/09/11 06:30:40;;;;;;;1.30;1.30;;;;;;;;;;5034257;28;20744;-73
2022/09/11 06:33:06;;;;;;;1.20;1.20;;;;;;;;;;5050841;28;20294;-73
2022/09/11 06:35:32;;;;;;;1.30;1.30;;;;;;;;;;5032098;28;20224;-72
2022/09/11 06:37:58;;;;;;;1.10;1.10;;;;;;;;;;5035817;28;20228;-75
2022/09/11 06:40:24;;;;;;;1.20;1.20;;;;;;;;;;5032531;28;20252;-74
2022/09/11 06:42:51;;;;;;;1.20;1.20;;;;;;;;;;5033716;28;21268;-74
2022/09/11 06:45:17;;;;;;;1.10;1.10;;;;;;;;;;5034821;28;20216;-75
2022/09/11 06:47:43;;;;;;;1.20;1.20;;;;;;;;;;5019315;28;20227;-74
2022/09/11 06:50:10;;;;;;;1.10;1.10;;;;;;;;;;5017645;28;20211;-73
2022/09/11 06:52:36;;;;;;;1.27;1.27;;;;;;;;;;5030003;28;20223;-75
2022/09/11 06:55:03;;;;;;;1.40;1.40;;;;;;;;;;5024696;28;20223;-74
2022/09/11 06:57:29;;;;;;;1.30;1.30;;;;;;;;;;5022780;28;20249;-75
2022/09/11 06:59:57;;;;;;;1.10;1.10;;;;;;;;;;5007802;28;20414;-74
2022/09/11 07:02:24;;;;;;;1.10;1.10;;;;;;;;;;5029726;28;20606;-74
2022/09/11 07:04:51;;;;;;;1.13;1.13;;;;;;;;;;5030245;28;20215;-72
2022/09/11 07:07:17;;;;;;;1.10;1.10;;;;;;;;;;5001314;28;20743;-76
2022/09/11 07:09:43;;;;;;;1.10;1.10;;;;;;;;;;5008008;28;20224;-73
2022/09/11 07:12:10;;;;;;;1.20;1.20;;;;;;;;;;5041847;28;20255;-73
2022/09/11 07:14:37;;;;;;;1.30;1.30;;;;;;;;;;5017604;28;20330;-74
2022/09/11 07:17:03;;;;;;;1.23;1.23;;;;;;;;;;5020234;28;20283;-73
2022/09/11 07:19:29;;;;;;;1.10;1.10;;;;;;;;;;5019120;28;20220;-74
2022/09/11 07:21:55;;;;;;;1.10;1.10;;;;;;;;;;5027903;28;20224;-74
2022/09/11 07:24:21;;;;;;;1.10;1.10;;;;;;;;;;5039833;28;20226;-73
2022/09/11 07:26:47;;;;;;;1.10;1.10;;;;;;;;;;5034262;28;20213;-74
2022/09/11 07:29:13;;;;;;;1.00;1.00;;;;;;;;;;5028599;28;20243;-74
2022/09/11 07:31:39;;;;;;;1.00;1.00;;;;;;;;;;5025972;28;20707;-75
2022/09/11 07:34:05;;;;;;;0.90;0.90;;;;;;;;;;5015869;28;20227;-75
2022/09/11 07:36:32;;;;;;;1.20;1.20;;;;;;;;;;5009183;28;20224;-74
2022/09/11 07:38:58;;;;;;;1.27;1.27;;;;;;;;;;5014066;28;20293;-74
2022/09/11 07:41:24;;;;;;;1.10;1.10;;;;;;;;;;5020001;28;20952;-72
2022/09/11 07:43:53;;;;;;;1.30;1.30;;;;;;;;;;5022964;28;20228;-72
2022/09/11 07:46:20;;;;;;;1.10;1.10;;;;;;;;;;5008218;28;20259;-75
2022/09/11 07:48:46;;;;;;;1.30;1.30;;;;;;;;;;5022388;28;20621;-74
2022/09/11 07:51:12;;;;;;;1.10;1.10;;;;;;;;;;5030045;28;20257;-73
2022/09/11 07:53:49;;;;;;;1.10;1.10;;;;;;;;;;5023710;28;20264;-73
2022/09/11 07:56:17;;;;;;;1.20;1.20;;;;;;;;;;5019677;28;20610;-73
2022/09/11 07:58:43;;;;;;;1.10;1.10;;;;;;;;;;5016489;28;20250;-74
2022/09/11 08:01:12;;;;;;;1.20;1.20;;;;;;;;;;4997444;28;20715;-74
2022/09/11 08:03:38;;;;;;;1.10;1.10;;;;;;;;;;5010832;28;20244;-73
2022/09/11 08:06:05;;;;;;;1.20;1.20;;;;;;;;;;5015808;28;20216;-73
2022/09/11 08:08:31;;;;;;;1.20;1.20;;;;;;;;;;5019300;28;20315;-75
2022/09/11 08:11:01;;;;;;;1.27;1.27;;;;;;;;;;5007181;28;20691;-74
2022/09/11 08:13:27;;;;;;;1.10;1.10;;;;;;;;;;4981330;28;20988;-74
2022/09/11 08:15:53;;;;;;;1.07;1.07;;;;;;;;;;5009961;28;20219;-73
2022/09/11 08:18:19;;;;;;;1.20;1.20;;;;;;;;;;5001141;28;20332;-74
2022/09/11 08:20:45;;;;;;;1.20;1.20;;;;;;;;;;5017079;28;20293;-73
2022/09/11 08:23:11;;;;;;;1.23;1.23;;;;;;;;;;5004224;28;20220;-73
2022/09/11 08:25:37;;;;;;;1.50;1.50;;;;;;;;;;5019272;28;20220;-74
2022/09/11 08:28:03;;;;;;;1.20;1.20;;;;;;;;;;5004332;28;20225;-73
2022/09/11 08:30:31;;;;;;;1.20;1.20;;;;;;;;;;5021041;28;20216;-73
2022/09/11 08:32:57;;;;;;;1.60;1.60;;;;;;;;;;5019598;28;20223;-72
2022/09/11 08:35:23;;;;;;;1.50;1.50;;;;;;;;;;5016904;28;20234;-73
2022/09/11 08:37:50;;;;;;;1.10;1.10;;;;;;;;;;5026221;28;20247;-73
2022/09/11 08:40:16;;;;;;;1.10;1.10;;;;;;;;;;5014834;28;20215;-74
2022/09/11 08:42:42;;;;;;;1.20;1.20;;;;;;;;;;5021742;28;20800;-73
2022/09/11 08:45:21;;;;;;;1.30;1.30;;;;;;;;;;5026179;28;20227;-72
2022/09/11 08:47:49;;;;;;;1.20;1.20;;;;;;;;;;4979175;28;20291;-73
2022/09/11 08:50:16;;;;;;;1.10;1.10;;;;;;;;;;5016920;28;20601;-73
2022/09/11 08:52:42;;;;;;;1.37;1.37;;;;;;;;;;4998730;28;20231;-73
2022/09/11 08:55:11;;;;;;;1.20;1.20;;;;;;;;;;5026436;28;20216;-73
2022/09/11 08:57:45;;;;;;;1.40;1.40;;;;;;;;;;4988370;28;20231;-73
2022/09/11 09:00:18;;;;;;;1.20;1.20;;;;;;;;;;5000770;28;20271;-74
2022/09/11 09:02:49;;;;;;;1.30;1.30;;;;;;;;;;4994119;28;21161;-76
2022/09/11 09:05:25;;;;;;;1.23;1.23;;;;;;;;;;4978189;28;20238;-75
2022/09/11 09:07:57;;;;;;;1.20;1.20;;;;;;;;;;4973606;28;20274;-74
2022/09/11 09:10:26;;;;;;;1.40;1.40;;;;;;;;;;4985984;28;20217;-76
2022/09/11 09:13:14;;;;;;;1.30;1.30;;;;;;;;;;4994516;28;20228;-73
2022/09/11 09:15:42;;;;;;;1.20;1.20;;;;;;;;;;4986162;28;20610;-73
2022/09/11 09:18:10;;;;;;;1.40;1.40;;;;;;;;;;4990599;28;20282;-75
2022/09/11 09:20:41;;;;;;;1.10;1.10;;;;;;;;;;4986044;28;20292;-74
2022/09/11 09:23:11;;;;;;;1.30;1.30;;;;;;;;;;4984090;28;20221;-73
2022/09/11 09:25:38;;;;;;;1.10;1.10;;;;;;;;;;5002308;28;20220;-73
2022/09/11 09:28:07;;;;;;;1.43;1.43;;;;;;;;;;4991749;28;20236;-75
2022/09/11 09:31:09;;;;;;;1.20;1.20;;;;;;;;;;4977783;28;20237;-75
2022/09/11 09:33:35;;;;;;;1.50;1.50;;;;;;;;;;4910276;28;20261;-72
2022/09/11 09:36:12;;;;;;;1.40;1.40;;;;;;;;;;4975917;28;20364;-72
2022/09/11 09:38:38;;;;;;;1.20;1.20;;;;;;;;;;4982432;28;20321;-75
2022/09/11 09:41:14;;;;;;;1.50;1.50;;;;;;;;;;4995789;28;20233;-73
2022/09/11 09:43:40;;;;;;;1.30;1.30;;;;;;;;;;4988555;28;20234;-76
2022/09/11 09:46:14;;;;;;;1.27;1.27;;;;;;;;;;4974548;28;20229;-75
2022/09/11 09:48:40;;;;;;;1.30;1.30;;;;;;;;;;4983011;28;20232;-74
2022/09/11 09:51:10;;;;;;;1.10;1.10;;;;;;;;;;4982605;28;20234;-75
2022/09/11 09:53:39;;;;;;;1.20;1.20;;;;;;;;;;4977277;28;20245;-74
2022/09/11 09:56:05;;;;;;;1.10;1.10;;;;;;;;;;4992823;28;20216;-73
2022/09/11 09:58:36;;;;;;;1.20;1.20;;;;;;;;;;4978106;28;20319;-73
2022/09/11 10:01:02;;;;;;;1.27;1.27;;;;;;;;;;4970112;28;20240;-73
2022/09/11 10:03:28;;;;;;;1.20;1.20;;;;;;;;;;4985316;28;20240;-74
2022/09/11 10:05:54;;;;;;;1.40;1.40;;;;;;;;;;5000597;28;20745;-73
2022/09/11 10:08:32;;;;;;;1.40;1.40;;;;;;;;;;5016478;28;20260;-76
2022/09/11 10:10:59;;;;;;;1.50;1.50;;;;;;;;;;5005131;28;20232;-74
2022/09/11 10:13:27;;;;;;;1.60;1.60;;;;;;;;;;5007101;28;20284;-74
2022/09/11 10:15:53;;;;;;;1.30;1.30;;;;;;;;;;5023013;28;20225;-74
2022/09/11 10:18:31;;;;;;;1.30;1.30;;;;;;;;;;5027901;28;20915;-74
2022/09/11 10:21:12;;;;;;;1.50;1.50;;;;;;;;;;5022347;28;20669;-73
2022/09/11 10:23:51;;;;;;;1.30;1.30;;;;;;;;;;5019586;28;20351;-74
2022/09/11 10:26:18;;;;;;;1.30;1.30;;;;;;;;;;5017969;28;20220;-74
2022/09/11 10:28:45;;;;;;;1.40;1.40;;;;;;;;;;4994503;28;20216;-73
2022/09/11 10:31:12;;;;;;;1.75;1.70;;;;;;;;;;5016954;28;20205;-73
2022/09/11 10:33:39;;;;;;;1.50;1.50;;;;;;;;;;5000138;28;20228;-73
2022/09/11 10:36:07;;;;;;;1.30;1.30;;;;;;;;;;5023862;28;20241;-73
2022/09/11 10:38:37;;;;;;;1.40;1.40;;;;;;;;;;5022103;28;20818;-72
2022/09/11 10:41:03;;;;;;;1.20;1.20;;;;;;;;;;5021765;28;20232;-72
2022/09/11 10:43:52;;;;;;;1.20;1.20;;;;;;;;;;5010507;28;20224;-73
2022/09/11 10:46:18;;;;;;;1.30;1.30;;;;;;;;;;4998373;28;20243;-74
2022/09/11 10:49:13;;;;;;;1.20;1.20;;;;;;;;;;5023140;28;20205;-73
2022/09/11 10:51:40;;;;;;;1.20;1.20;;;;;;;;;;4989050;28;20766;-76
2022/09/11 10:54:06;;;;;;;1.20;1.20;;;;;;;;;;5004755;28;20218;-73
2022/09/11 10:56:37;;;;;;;1.33;1.33;;;;;;;;;;5025505;28;20273;-75
2022/09/11 10:59:05;;;;;;;1.30;1.30;;;;;;;;;;5001918;28;21140;-73
2022/09/11 11:01:31;;;;;;;1.42;1.42;;;;;;;;;;5009634;28;20321;-72
2022/09/11 11:03:57;;;;;;;1.30;1.30;;;;;;;;;;5004286;28;20267;-74
2022/09/11 11:06:28;;;;;;;1.40;1.40;;;;;;;;;;4999620;28;20213;-75
2022/09/11 11:09:32;;;;;;;0.70;0.70;;;;;;;;;;5019176;28;20220;-74
2022/09/11 11:12:06;;;;;;;0.80;0.80;;;;;;;;;;4942794;28;20250;-74
2022/09/11 11:14:45;;;;;;;1.00;1.00;;;;;;;;;;4937402;28;20376;-74
2022/09/11 11:17:40;;;;;;;1.00;1.00;;;;;;;;;;4979109;28;20808;-75
2022/09/11 11:20:25;;;;;;;1.00;1.00;;;;;;;;;;4969976;28;21129;-75
2022/09/11 11:23:01;;;;;;;1.10;1.10;;;;;;;;;;5005546;28;20329;-75
2022/09/11 11:25:30;;;;;;;1.10;1.10;;;;;;;;;;5005390;28;20825;-74
2022/09/11 11:28:02;;;;;;;0.90;0.90;;;;;;;;;;4985594;28;20236;-73
2022/09/11 11:30:49;;;;;;;0.80;0.80;;;;;;;;;;5002437;28;20274;-74
2022/09/11 11:33:22;;;;;;;0.82;0.82;;;;;;;;;;4999788;28;20215;-72
2022/09/11 11:35:54;;;;;;;0.70;0.70;;;;;;;;;;4994212;28;20238;-74
2022/09/11 11:38:23;;;;;;;0.70;0.70;;;;;;;;;;4987236;28;20713;-73
2022/09/11 11:40:52;;;;;;;0.70;0.70;;;;;;;;;;5000274;28;21181;-73
2022/09/11 11:43:20;;;;;;;0.70;0.70;;;;;;;;;;4995038;28;20206;-73
2022/09/11 11:45:54;;;;;;;0.60;0.60;;;;;;;;;;5004108;28;20216;-73
2022/09/11 11:48:31;;;;;;;0.68;0.68;;;;;;;;;;4994902;28;20404;-74
2022/09/11 11:51:04;;;;;;;0.70;0.70;;;;;;;;;;5015565;28;20302;-75
2022/09/11 11:53:37;;;;;;;0.70;0.70;;;;;;;;;;5006090;28;20240;-73
2022/09/11 11:56:16;;;;;;;0.70;0.70;;;;;;;;;;5011789;28;20379;-72
2022/09/11 11:58:59;;;;;;;0.60;0.60;;;;;;;;;;4997463;28;20257;-74
2022/09/11 12:01:39;;;;;;;0.60;0.60;;;;;;;;;;5019161;28;21207;-72
2022/09/11 12:04:08;;;;;;;0.70;0.70;;;;;;;;;;5011042;28;20237;-73
2022/09/11 12:06:34;;;;;;;0.70;0.70;;;;;;;;;;4993717;28;20315;-75
2022/09/11 12:09:00;;;;;;;0.70;0.70;;;;;;;;;;4986408;28;20227;-73
2022/09/11 12:11:28;;;;;;;0.73;0.73;;;;;;;;;;4998166;28;20237;-72
2022/09/11 12:13:54;;;;;;;0.90;0.90;;;;;;;;;;5004334;28;20228;-74
2022/09/11 12:16:21;;;;;;;1.20;1.20;;;;;;;;;;5004943;28;20214;-74
2022/09/11 12:19:02;;;;;;;1.98;1.88;;;;;;;;;;4999509;28;20222;-74
2022/09/11 12:21:30;;;;;;;0.60;0.60;;;;;;;;;;5000095;28;20228;-73
2022/09/11 12:23:56;;;;;;;0.70;0.70;;;;;;;;;;5001134;28;20240;-74
2022/09/11 12:26:22;;;;;;;0.70;0.70;;;;;;;;;;4981791;28;20273;-74
2022/09/11 12:28:48;;;;;;;0.57;0.57;;;;;;;;;;4988197;28;21094;-76
2022/09/11 12:31:15;;;;;;;0.70;0.70;;;;;;;;;;4986485;28;20224;-75
2022/09/11 12:33:45;;;;;;;0.60;0.60;;;;;;;;;;4999892;28;20271;-75
2022/09/11 12:36:11;;;;;;;0.60;0.60;;;;;;;;;;4999825;28;20224;-73
2022/09/11 12:39:01;;;;;;;0.60;0.60;;;;;;;;;;5003716;28;20579;-77
2022/09/11 12:41:29;;;;;;;0.60;0.60;;;;;;;;;;4994606;28;20383;-73
2022/09/11 12:43:54;;;;;;;0.70;0.70;;;;;;;;;;4994797;28;20239;-75
2022/09/11 12:46:20;;;;;;;0.70;0.70;;;;;;;;;;4986765;28;20221;-76
2022/09/11 12:48:49;;;;;;;0.60;0.60;;;;;;;;;;5003743;28;20629;-74
2022/09/11 12:51:20;;;;;;;0.60;0.60;;;;;;;;;;4998046;28;20230;-74
2022/09/11 12:53:46;;;;;;;0.60;0.60;;;;;;;;;;5015832;28;20227;-73
2022/09/11 12:56:17;;;;;;;0.60;0.60;;;;;;;;;;5000021;28;20217;-74
2022/09/11 12:58:43;;;;;;;0.60;0.60;;;;;;;;;;5001393;28;20220;-74
2022/09/11 13:01:09;;;;;;;0.70;0.70;;;;;;;;;;4997800;28;20237;-75
2022/09/11 13:03:37;;;;;;;0.65;0.65;;;;;;;;;;5008908;28;20242;-75
2022/09/11 13:06:07;;;;;;;0.70;0.70;;;;;;;;;;5028266;28;20220;-73
2022/09/11 13:08:34;;;;;;;0.60;0.60;;;;;;;;;;5050036;28;20210;-74
2022/09/11 13:11:24;;;;;;;0.80;0.80;;;;;;;;;;5042589;28;20654;-73
2022/09/11 13:13:50;;;;;;;0.70;0.70;;;;;;;;;;5031113;28;20230;-74
2022/09/11 13:16:17;;;;;;;0.70;0.70;;;;;;;;;;5025486;28;20223;-75
2022/09/11 13:18:43;;;;;;;0.70;0.70;;;;;;;;;;5025586;28;20216;-73
2022/09/11 13:21:09;;;;;;;0.80;0.80;;;;;;;;;;5046091;28;20270;-74
2022/09/11 13:23:35;;;;;;;0.80;0.80;;;;;;;;;;5042373;28;20235;-73
2022/09/11 13:26:01;;;;;;;0.70;0.70;;;;;;;;;;5029546;28;20223;-74
2022/09/11 13:28:27;;;;;;;0.70;0.70;;;;;;;;;;5022354;28;20220;-74
2022/09/11 13:31:14;;;;;;;0.70;0.70;;;;;;;;;;5018015;28;20297;-74
2022/09/11 13:33:40;;;;;;;0.85;0.85;;;;;;;;;;5021176;28;20236;-75
2022/09/11 13:36:07;;;;;;;0.88;0.88;;;;;;;;;;5022267;28;20219;-73
2022/09/11 13:38:33;;;;;;;1.20;1.20;;;;;;;;;;5034748;28;20783;-73
2022/09/11 13:41:01;;;;;;;1.30;1.30;;;;;;;;;;5026115;28;20223;-77
2022/09/11 13:43:28;;;;;;;1.40;1.40;;;;;;;;;;5032994;28;20226;-73
2022/09/11 13:46:13;;;;;;;1.00;1.00;;;;;;;;;;5043145;28;20219;-73
2022/09/11 13:48:39;;;;;;;1.33;1.33;;;;;;;;;;5039320;28;20645;-72
2022/09/11 13:51:05;;;;;;;1.40;1.40;;;;;;;;;;5040914;28;20232;-74
2022/09/11 13:53:32;;;;;;;1.20;1.20;;;;;;;;;;5048590;28;20771;-75
2022/09/11 13:55:57;;;;;;;1.20;1.20;;;;;;;;;;5029639;28;20680;-73
2022/09/11 13:58:34;;;;;;;1.25;1.25;;;;;;;;;;5042770;28;20400;-75
2022/09/11 14:01:26;;;;;;;1.20;1.20;;;;;;;;;;5049652;28;20211;-76
2022/09/11 14:03:52;;;;;;;1.27;1.27;;;;;;;;;;5038150;28;20603;-74
2022/09/11 14:06:18;;;;;;;1.20;1.20;;;;;;;;;;5033908;28;20212;-76
2022/09/11 14:08:51;;;;;;;1.30;1.30;;;;;;;;;;5022223;28;20767;-74
2022/09/11 14:11:24;;;;;;;1.25;1.25;;;;;;;;;;5002930;28;20238;-73
2022/09/11 14:13:55;;;;;;;1.38;1.38;;;;;;;;;;4993548;28;20233;-74
2022/09/11 14:16:28;;;;;;;1.45;1.45;;;;;;;;;;5032455;28;20223;-74
2022/09/11 14:18:58;;;;;;;1.50;1.50;;;;;;;;;;5021521;28;20244;-74
2022/09/11 14:21:45;;;;;;;1.30;1.30;;;;;;;;;;5006384;28;20261;-74
2022/09/11 14:24:31;;;;;;;1.60;1.60;;;;;;;;;;5033613;28;20254;-74
2022/09/11 14:26:57;;;;;;;1.48;1.48;;;;;;;;;;5014061;28;20208;-74
2022/09/11 14:29:24;;;;;;;1.23;1.23;;;;;;;;;;5008979;28;20215;-74
2022/09/11 14:31:50;;;;;;;1.38;1.38;;;;;;;;;;5014302;28;20242;-72
2022/09/11 14:34:29;;;;;;;1.33;1.33;;;;;;;;;;5034039;28;20357;-73
2022/09/11 14:36:56;;;;;;;1.30;1.30;;;;;;;;;;5014945;28;20242;-74
2022/09/11 14:39:26;;;;;;;1.30;1.30;;;;;;;;;;5019629;28;20208;-73
2022/09/11 14:41:53;;;;;;;1.40;1.40;;;;;;;;;;5029756;28;20232;-74
2022/09/11 14:44:21;;;;;;;1.50;1.50;;;;;;;;;;5018823;28;20588;-73
2022/09/11 14:46:46;;;;;;;1.50;1.50;;;;;;;;;;5033457;28;20215;-74
2022/09/11 14:49:14;;;;;;;1.20;1.20;;;;;;;;;;5041232;28;20209;-73
2022/09/11 14:51:40;;;;;;;1.40;1.40;;;;;;;;;;5026871;28;20265;-74
2022/09/11 14:54:06;;;;;;;1.20;1.20;;;;;;;;;;5037808;28;20224;-73